Pasadena Park, Missouri
Current Conditions -  °F | °C
As of 6:51 AM on Saturday 20 Dec 2014 (Local Time) from KSTL Reporting Station
Overcast Overcast  
Wind Chill: 31°   Ceiling: 6500
Heat Index: 36°   Visibility: 7mi
Dew Point: 27°   Wind: 6mph
Humidity: 70%   Direction: 140°SE
Pressure: 30.26"   Gusts: NA
Location:  38.7055°N, 90.3021°W
Report Text: KSTL 201251Z 14005KT 7SM FEW033 OVC065 02/M03 A3026 RMK AO2 SLP257 T00221028
Loading
Personal Weather Stations






























Interactive Weather Map New forecast layout! Learn more

10-Day Weather Forecast

Advertisements
Track Severe Weather on mobile